createdAt,value
2023-03-05T00:00:22.330Z,67.90
2023-03-05T00:01:22.315Z,67.62
2023-03-05T00:02:22.383Z,67.24
2023-03-05T00:03:22.568Z,67.43
2023-03-05T00:04:22.317Z,67.43
2023-03-05T00:05:22.344Z,67.52
2023-03-05T00:06:22.330Z,67.62
2023-03-05T00:07:22.332Z,67.71
2023-03-05T00:08:22.325Z,67.71
2023-03-05T00:09:22.324Z,67.81
2023-03-05T00:10:22.344Z,67.81
2023-03-05T00:11:22.349Z,67.71
2023-03-05T00:12:22.336Z,67.71
2023-03-05T00:13:22.335Z,67.43
2023-03-05T00:14:22.356Z,67.62
2023-03-05T00:15:22.336Z,67.71
2023-03-05T00:16:22.431Z,67.81
2023-03-05T00:17:22.349Z,67.24
2023-03-05T00:18:22.345Z,67.90
2023-03-05T00:19:22.354Z,67.90
2023-03-05T00:21:22.374Z,68.10
2023-03-05T00:22:22.356Z,68.48
2023-03-05T00:23:22.354Z,68.29
2023-03-05T00:24:22.355Z,68.85
2023-03-05T00:25:22.352Z,68.76
2023-03-05T00:26:22.377Z,68.76
2023-03-05T00:27:22.373Z,69.04
2023-03-05T00:28:22.367Z,68.95
2023-03-05T00:29:22.367Z,68.95
2023-03-05T00:30:22.378Z,69.13
2023-03-05T00:31:22.435Z,69.61
2023-03-05T00:32:22.453Z,69.33
2023-03-05T00:33:22.379Z,69.52
2023-03-05T00:34:22.372Z,69.42
2023-03-05T00:35:22.403Z,69.23
2023-03-05T00:36:22.381Z,69.42
2023-03-05T00:37:22.400Z,69.90
2023-03-05T00:38:22.384Z,69.90
2023-03-05T00:39:22.380Z,69.90
2023-03-05T00:40:22.503Z,70.28
2023-03-05T00:41:22.394Z,70.18
2023-03-05T00:42:22.404Z,70.28
2023-03-05T00:43:22.399Z,70.47
2023-03-05T00:44:22.419Z,70.56
2023-03-05T00:45:22.393Z,70.37
2023-03-05T00:46:22.424Z,70.47
2023-03-05T00:47:22.404Z,70.18
2023-03-05T00:48:22.417Z,70.28
2023-03-05T00:49:22.403Z,70.75
2023-03-05T00:50:22.410Z,70.65
2023-03-05T00:51:22.412Z,71.22
2023-03-05T00:52:22.416Z,71.03
2023-03-05T00:53:22.447Z,70.65
2023-03-05T00:54:22.420Z,70.75
2023-03-05T00:55:22.416Z,70.94
2023-03-05T00:56:22.416Z,71.32
2023-03-05T00:57:22.425Z,71.13
2023-03-05T00:58:22.423Z,71.22
2023-03-05T00:59:22.432Z,71.41
2023-03-05T01:00:22.447Z,71.32
2023-03-05T01:01:22.466Z,72.08
2023-03-05T01:02:22.434Z,71.70
2023-03-05T01:03:22.421Z,71.51
2023-03-05T01:04:22.430Z,71.89
2023-03-05T01:05:22.457Z,71.89
2023-03-05T01:06:22.422Z,71.70
2023-03-05T01:07:22.428Z,72.17
2023-03-05T01:08:22.429Z,71.70
2023-03-05T01:09:22.467Z,72.45
2023-03-05T01:10:22.438Z,72.36
2023-03-05T01:11:22.445Z,72.36
2023-03-05T01:12:22.433Z,72.93
2023-03-05T01:13:22.445Z,72.64
2023-03-05T01:14:22.436Z,73.12
2023-03-05T01:15:22.434Z,73.03
2023-03-05T01:16:22.476Z,73.60
2023-03-05T01:17:22.433Z,73.12
2023-03-05T01:18:22.441Z,73.60
2023-03-05T01:19:22.450Z,74.07
2023-03-05T01:20:22.460Z,73.88
2023-03-05T01:22:22.447Z,74.54
2023-03-05T01:23:22.446Z,75.02
2023-03-05T01:24:22.452Z,74.83
2023-03-05T01:25:22.472Z,75.68
2023-03-05T01:26:22.450Z,75.31
2023-03-05T01:27:22.448Z,75.59
2023-03-05T01:28:22.451Z,75.40
2023-03-05T01:29:22.463Z,76.25
2023-03-05T01:30:22.455Z,76.82
2023-03-05T01:31:22.544Z,77.29
2023-03-05T01:32:22.470Z,78.43
2023-03-05T01:33:22.467Z,78.53
2023-03-05T01:34:22.456Z,78.72
2023-03-05T01:35:22.511Z,79.66
2023-03-05T01:36:22.458Z,79.95
2023-03-05T01:37:22.479Z,80.14
2023-03-05T01:38:22.470Z,80.14
2023-03-05T01:39:22.476Z,80.90
2023-03-05T01:40:22.470Z,80.71
2023-03-05T01:41:22.490Z,80.99
2023-03-05T01:42:22.478Z,81.47
2023-03-05T01:43:22.471Z,81.75
2023-03-05T01:44:22.483Z,81.75
2023-03-05T01:45:22.482Z,82.23
2023-03-05T01:46:22.478Z,82.32
2023-03-05T01:47:22.486Z,82.60
2023-03-05T01:48:22.491Z,82.51
2023-03-05T01:49:22.495Z,82.51
2023-03-05T01:50:22.496Z,83.04
2023-03-05T01:51:22.486Z,83.08
2023-03-05T01:52:22.498Z,83.17
2023-03-05T01:53:22.496Z,83.23
2023-03-05T01:54:22.515Z,83.61
2023-03-05T01:55:22.503Z,83.23
2023-03-05T01:56:22.501Z,83.36
2023-03-05T01:57:22.520Z,84.03
2023-03-05T01:58:22.504Z,83.74
2023-03-05T01:59:22.508Z,83.84
2023-03-05T02:00:22.533Z,84.22
2023-03-05T02:01:22.597Z,84.41
2023-03-05T02:02:22.516Z,83.94
2023-03-05T02:03:22.508Z,84.17
2023-03-05T02:04:22.515Z,84.65
2023-03-05T02:05:22.513Z,84.36
2023-03-05T02:06:22.518Z,84.65
2023-03-05T02:07:22.508Z,84.65
2023-03-05T02:08:22.522Z,84.94
2023-03-05T02:09:22.511Z,84.94
2023-03-05T02:10:22.531Z,84.55
2023-03-05T02:11:22.526Z,84.36
2023-03-05T02:12:22.528Z,84.74
2023-03-05T02:13:22.558Z,84.55
2023-03-05T02:14:22.530Z,85.03
2023-03-05T02:15:22.535Z,84.94
2023-03-05T02:16:22.592Z,84.94
2023-03-05T02:17:22.530Z,85.03
2023-03-05T02:18:22.550Z,85.07
2023-03-05T02:19:22.535Z,85.31
2023-03-05T02:20:22.541Z,85.13
2023-03-05T02:21:22.537Z,85.13
2023-03-05T02:22:22.543Z,85.83
2023-03-05T02:23:22.549Z,85.17
2023-03-05T02:24:22.548Z,85.26
2023-03-05T02:25:22.552Z,85.50
2023-03-05T02:26:22.544Z,85.41
2023-03-05T02:27:22.556Z,85.45
2023-03-05T02:28:22.558Z,85.13
2023-03-05T02:29:22.572Z,85.41
2023-03-05T02:30:22.565Z,85.64
2023-03-05T02:31:22.603Z,85.74
2023-03-05T02:32:22.611Z,85.60
2023-03-05T02:33:22.562Z,85.64
2023-03-05T02:34:22.568Z,85.60
2023-03-05T02:35:22.618Z,85.50
2023-03-05T02:36:22.569Z,85.60
2023-03-05T02:37:22.568Z,85.50
2023-03-05T02:38:22.574Z,85.41
2023-03-05T02:39:22.580Z,85.60
2023-03-05T02:40:22.570Z,85.50
2023-03-05T02:41:22.591Z,85.69
2023-03-05T02:42:22.571Z,85.64
2023-03-05T02:43:22.585Z,85.50
2023-03-05T02:44:22.578Z,85.50
2023-03-05T02:45:22.601Z,85.31
2023-03-05T02:46:22.588Z,85.69
2023-03-05T02:47:22.580Z,85.97
2023-03-05T02:48:22.588Z,85.78
2023-03-05T02:49:22.590Z,85.60
2023-03-05T02:50:22.593Z,85.69
2023-03-05T02:51:22.586Z,85.50
2023-03-05T02:52:22.596Z,85.60
2023-03-05T02:53:22.589Z,86.16
2023-03-05T02:54:22.600Z,85.60
2023-03-05T02:55:22.592Z,85.50
2023-03-05T02:56:22.596Z,85.50
2023-03-05T02:57:22.602Z,85.50
2023-03-05T02:58:22.597Z,85.41
2023-03-05T02:59:22.601Z,85.69
2023-03-05T03:00:22.608Z,85.97
2023-03-05T03:01:22.707Z,85.41
2023-03-05T03:02:22.606Z,85.41
2023-03-05T03:03:22.715Z,86.07
2023-03-05T03:04:22.609Z,85.78
2023-03-05T03:05:22.617Z,85.50
2023-03-05T03:06:22.617Z,85.78
2023-03-05T03:07:22.619Z,85.50
2023-03-05T03:08:22.621Z,85.69
2023-03-05T03:09:22.627Z,85.50
2023-03-05T03:10:22.685Z,85.78
2023-03-05T03:11:22.630Z,85.41
2023-03-05T03:12:22.626Z,85.50
2023-03-05T03:13:22.627Z,85.60
2023-03-05T03:14:22.649Z,85.78
2023-03-05T03:15:22.623Z,85.78
2023-03-05T03:16:22.665Z,85.69
2023-03-05T03:17:22.655Z,85.69
2023-03-05T03:18:22.627Z,85.69
2023-03-05T03:19:22.635Z,85.69
2023-03-05T03:20:22.746Z,85.60
2023-03-05T03:21:22.640Z,85.69
2023-03-05T03:22:22.635Z,85.50
2023-03-05T03:23:22.645Z,85.97
2023-03-05T03:24:22.646Z,86.07
2023-03-05T03:25:22.678Z,86.16
2023-03-05T03:26:22.650Z,86.55
2023-03-05T03:27:22.644Z,86.55
2023-03-05T03:28:22.652Z,86.26
2023-03-05T03:29:22.646Z,86.93
2023-03-05T03:30:22.677Z,86.93
2023-03-05T03:31:22.683Z,87.40
2023-03-05T03:32:22.741Z,87.40
2023-03-05T03:33:22.679Z,87.49
2023-03-05T03:34:22.654Z,87.40
2023-03-05T03:35:22.706Z,87.59
2023-03-05T03:36:22.666Z,87.97
2023-03-05T03:37:22.657Z,88.54
2023-03-05T03:38:22.677Z,88.54
2023-03-05T03:39:22.669Z,88.44
2023-03-05T03:40:22.666Z,88.16
2023-03-05T03:41:22.670Z,88.82
2023-03-05T03:42:22.675Z,88.54
2023-03-05T03:43:22.689Z,88.92
2023-03-05T03:44:22.684Z,89.29
2023-03-05T03:45:22.680Z,89.20
2023-03-05T03:46:22.783Z,89.58
2023-03-05T03:47:22.689Z,89.20
2023-03-05T03:48:22.680Z,89.29
2023-03-05T03:49:22.714Z,89.77
2023-03-05T03:50:22.782Z,89.48
2023-03-05T03:51:22.680Z,89.29
2023-03-05T03:52:22.683Z,89.39
2023-03-05T03:53:22.682Z,89.20
2023-03-05T03:54:22.712Z,89.39
2023-03-05T03:55:22.688Z,89.58
2023-03-05T03:56:22.696Z,89.39
2023-03-05T03:57:22.698Z,89.48
2023-03-05T03:58:22.702Z,89.29
2023-03-05T03:59:22.695Z,89.29
2023-03-05T04:00:22.705Z,89.67
2023-03-05T04:01:22.703Z,89.39
2023-03-05T04:02:22.714Z,89.29
2023-03-05T04:03:22.708Z,89.11
2023-03-05T04:04:22.746Z,89.11
2023-03-05T04:05:22.728Z,89.29
2023-03-05T04:06:22.714Z,89.29
2023-03-05T04:07:22.707Z,89.29
2023-03-05T04:08:22.707Z,89.29
2023-03-05T04:09:22.717Z,88.73
2023-03-05T04:10:22.740Z,89.20
2023-03-05T04:11:22.747Z,88.73
2023-03-05T04:12:22.714Z,88.73
2023-03-05T04:13:22.722Z,88.92
2023-03-05T04:14:22.719Z,88.63
2023-03-05T04:15:22.730Z,88.73
2023-03-05T04:16:22.834Z,88.73
2023-03-05T04:17:22.724Z,88.92
2023-03-05T04:18:22.723Z,88.54
2023-03-05T04:19:22.754Z,88.63
2023-03-05T04:20:22.734Z,88.63
2023-03-05T04:21:22.759Z,88.92
2023-03-05T04:22:22.730Z,88.82
2023-03-05T04:23:22.741Z,88.73
2023-03-05T04:24:22.740Z,89.11
2023-03-05T04:25:22.741Z,89.11
2023-03-05T04:26:22.748Z,88.73
2023-03-05T04:27:22.734Z,89.39
2023-03-05T04:28:22.741Z,89.29
2023-03-05T04:29:22.743Z,89.01
2023-03-05T04:30:22.746Z,89.39
2023-03-05T04:31:22.770Z,89.29
2023-03-05T04:32:22.825Z,89.01
2023-03-05T04:33:22.757Z,89.11
2023-03-05T04:34:22.751Z,88.92
2023-03-05T04:35:22.818Z,89.29
2023-03-05T04:36:22.744Z,89.29
2023-03-05T04:37:22.770Z,89.20
2023-03-05T04:38:22.754Z,89.39
2023-03-05T04:39:22.752Z,89.48
2023-03-05T04:40:22.765Z,89.39
2023-03-05T04:41:22.772Z,89.39
2023-03-05T04:42:22.760Z,89.58
2023-03-05T04:43:22.753Z,89.67
2023-03-05T04:44:22.757Z,89.20
2023-03-05T04:45:22.766Z,89.39
2023-03-05T04:46:22.803Z,89.29
2023-03-05T04:47:22.758Z,89.39
2023-03-05T04:48:22.769Z,89.58
2023-03-05T04:49:22.765Z,89.58
2023-03-05T04:50:22.762Z,89.58
2023-03-05T04:51:22.764Z,89.77
2023-03-05T04:52:22.768Z,89.96
2023-03-05T04:53:22.805Z,90.05
2023-03-05T04:54:22.824Z,89.96
2023-03-05T04:55:22.777Z,90.62
2023-03-05T04:56:22.771Z,90.24
2023-03-05T04:57:24.044Z,90.43
2023-03-05T04:58:22.780Z,90.62
2023-03-05T04:59:22.781Z,90.53
2023-03-05T05:00:22.784Z,91.38
2023-03-05T05:01:22.846Z,90.91
2023-03-05T05:02:22.801Z,90.91
2023-03-05T05:03:22.785Z,90.91
2023-03-05T05:04:22.784Z,91.09
2023-03-05T05:05:22.792Z,91.09
2023-03-05T05:06:22.797Z,90.81
2023-03-05T05:07:22.788Z,91.00
2023-03-05T05:08:22.797Z,91.09
2023-03-05T05:09:22.812Z,90.91
2023-03-05T05:10:22.792Z,91.09
2023-03-05T05:11:22.797Z,90.72
2023-03-05T05:12:22.805Z,91.09
2023-03-05T05:13:22.796Z,90.81
2023-03-05T05:14:22.806Z,91.00
2023-03-05T05:15:22.840Z,90.91
2023-03-05T05:16:22.812Z,90.72
2023-03-05T05:17:22.809Z,90.72
2023-03-05T05:18:22.816Z,90.72
2023-03-05T05:19:22.878Z,90.72
2023-03-05T05:20:22.821Z,90.91
2023-03-05T05:21:22.807Z,90.91
2023-03-05T05:22:22.809Z,91.19
2023-03-05T05:23:22.819Z,90.86
2023-03-05T05:24:22.821Z,90.95
2023-03-05T05:25:22.833Z,90.91
2023-03-05T05:26:22.828Z,91.24
2023-03-05T05:27:22.823Z,90.91
2023-03-05T05:28:22.832Z,91.00
2023-03-05T05:29:22.830Z,90.91
2023-03-05T05:30:22.836Z,91.00
2023-03-05T05:31:22.881Z,90.72
2023-03-05T05:32:22.970Z,91.28
2023-03-05T05:33:22.833Z,91.47
2023-03-05T05:34:22.830Z,91.47
2023-03-05T05:35:22.910Z,91.57
2023-03-05T05:36:22.875Z,91.76
2023-03-05T05:37:22.834Z,91.57
2023-03-05T05:38:22.834Z,91.47
2023-03-05T05:39:22.843Z,91.95
2023-03-05T05:40:22.845Z,92.04
2023-03-05T05:41:22.862Z,91.85
2023-03-05T05:42:22.851Z,92.14
2023-03-05T05:43:22.852Z,92.52
2023-03-05T05:44:22.863Z,92.80
2023-03-05T05:45:22.904Z,92.71
2023-03-05T05:46:23.130Z,92.61
2023-03-05T05:47:22.860Z,92.71
2023-03-05T05:48:22.873Z,92.90
2023-03-05T05:49:22.860Z,93.56
2023-03-05T05:50:22.870Z,93.75
2023-03-05T05:51:22.867Z,93.65
2023-03-05T05:52:22.861Z,94.13
2023-03-05T05:53:22.868Z,94.04
2023-03-05T05:54:22.871Z,93.94
2023-03-05T05:55:22.864Z,94.32
2023-03-05T05:56:22.878Z,94.32
2023-03-05T05:57:22.892Z,94.32
2023-03-05T05:58:22.867Z,94.60
2023-03-05T05:59:22.875Z,94.32
2023-03-05T06:00:22.865Z,94.32
2023-03-05T06:01:22.872Z,94.32
2023-03-05T06:02:22.940Z,94.42
2023-03-05T06:03:22.908Z,94.60
2023-03-05T06:04:22.874Z,94.51
2023-03-05T06:05:22.896Z,94.60
2023-03-05T06:06:22.913Z,94.51
2023-03-05T06:07:22.889Z,94.42
2023-03-05T06:08:22.879Z,94.42
2023-03-05T06:09:22.890Z,94.32
2023-03-05T06:10:22.887Z,94.51
2023-03-05T06:11:22.911Z,94.60
2023-03-05T06:12:22.892Z,94.42
2023-03-05T06:13:22.907Z,94.42
2023-03-05T06:14:22.896Z,94.42
2023-03-05T06:15:23.083Z,94.32
2023-03-05T06:16:22.972Z,95.26
2023-03-05T06:17:30.378Z,95.17
2023-03-05T06:18:22.897Z,95.26
2023-03-05T06:19:22.894Z,95.17
2023-03-05T06:20:22.897Z,94.98
2023-03-05T06:21:22.913Z,94.51
2023-03-05T06:22:22.901Z,95.17
2023-03-05T06:23:22.906Z,94.98
2023-03-05T06:24:22.901Z,94.98
2023-03-05T06:25:22.912Z,94.79
2023-03-05T06:26:22.910Z,94.98
2023-03-05T06:27:22.912Z,94.98
2023-03-05T06:28:22.914Z,94.98
2023-03-05T06:29:22.935Z,94.98
2023-03-05T06:30:22.910Z,94.98
2023-03-05T06:31:22.934Z,94.89
2023-03-05T06:32:22.963Z,95.07
2023-03-05T06:33:22.919Z,94.79
2023-03-05T06:34:22.913Z,94.89
2023-03-05T06:35:22.976Z,94.98
2023-03-05T06:36:22.934Z,94.42
2023-03-05T06:37:22.918Z,95.07
2023-03-05T06:38:22.936Z,95.07
2023-03-05T06:39:22.921Z,95.36
2023-03-05T06:40:22.923Z,94.98
2023-03-05T06:41:22.935Z,95.17
2023-03-05T06:42:22.928Z,94.51
2023-03-05T06:43:22.926Z,94.42
2023-03-05T06:44:22.936Z,94.32
2023-03-05T06:45:22.957Z,94.32
2023-03-05T06:46:23.017Z,94.42
2023-03-05T06:47:22.933Z,94.32
2023-03-05T06:48:22.938Z,94.08
2023-03-05T06:49:22.942Z,94.27
2023-03-05T06:50:22.934Z,94.08
2023-03-05T06:51:22.958Z,93.70
2023-03-05T06:52:22.965Z,93.89
2023-03-05T06:53:22.940Z,93.99
2023-03-05T06:54:22.945Z,93.51
2023-03-05T06:55:22.974Z,93.41
2023-03-05T06:56:22.945Z,93.32
2023-03-05T06:57:22.980Z,93.80
2023-03-05T06:58:22.958Z,92.85
2023-03-05T06:59:22.959Z,92.66
2023-03-05T07:00:22.952Z,93.13
2023-03-05T07:01:23.025Z,92.47
2023-03-05T07:02:22.988Z,91.80
2023-03-05T07:03:22.974Z,91.52
2023-03-05T07:04:22.966Z,91.71
2023-03-05T07:05:22.977Z,91.80
2023-03-05T07:06:22.972Z,91.99
2023-03-05T07:07:22.970Z,91.80
2023-03-05T07:08:22.972Z,91.52
2023-03-05T07:09:22.967Z,91.99
2023-03-05T07:10:23.005Z,91.61
2023-03-05T07:11:22.970Z,91.61
2023-03-05T07:12:22.973Z,90.86
2023-03-05T07:13:22.972Z,90.95
2023-03-05T07:14:22.990Z,91.05
2023-03-05T07:15:23.008Z,91.24
2023-03-05T07:16:22.978Z,90.86
2023-03-05T07:17:23.002Z,90.95
2023-03-05T07:18:22.987Z,91.05
2023-03-05T07:19:22.989Z,90.95
2023-03-05T07:20:22.994Z,90.76
2023-03-05T07:21:23.004Z,90.29
2023-03-05T07:22:23.006Z,90.48
2023-03-05T07:23:23.003Z,90.29
2023-03-05T07:24:23.003Z,90.38
2023-03-05T07:25:22.995Z,90.62
2023-03-05T07:26:23.001Z,90.52
2023-03-05T07:27:23.012Z,90.14
2023-03-05T07:28:23.008Z,90.05
2023-03-05T07:29:23.005Z,90.05
2023-03-05T07:30:23.019Z,89.86
2023-03-05T07:31:27.603Z,90.33
2023-03-05T07:32:23.059Z,90.33
2023-03-05T07:33:23.039Z,89.39
2023-03-05T07:34:24.130Z,89.58
2023-03-05T07:35:23.084Z,89.48
2023-03-05T07:36:23.024Z,89.39
2023-03-05T07:37:24.442Z,89.39
2023-03-05T07:38:23.029Z,89.10
2023-03-05T07:39:23.033Z,89.39
2023-03-05T07:40:23.038Z,89.43
2023-03-05T07:41:23.043Z,90.14
2023-03-05T07:42:23.108Z,90.33
2023-03-05T07:43:23.034Z,89.86
2023-03-05T07:44:23.033Z,90.10
2023-03-05T07:45:23.037Z,89.91
2023-03-05T07:46:23.178Z,90.57
2023-03-05T07:47:23.053Z,90.48
2023-03-05T07:48:25.698Z,90.48
2023-03-05T07:49:23.052Z,90.67
2023-03-05T07:50:23.054Z,90.86
2023-03-05T07:51:23.057Z,90.86
2023-03-05T07:52:23.049Z,91.05
2023-03-05T07:53:23.054Z,90.86
2023-03-05T07:54:23.057Z,90.76
2023-03-05T07:55:23.059Z,90.95
2023-03-05T07:56:23.060Z,91.33
2023-03-05T07:57:23.070Z,91.52
2023-03-05T07:58:23.065Z,91.80
2023-03-05T07:59:23.074Z,91.52
2023-03-05T08:00:23.076Z,91.99
2023-03-05T08:01:23.077Z,91.61
2023-03-05T08:02:23.127Z,91.61
2023-03-05T08:03:23.077Z,92.09
2023-03-05T08:04:25.737Z,92.18
2023-03-05T08:05:23.078Z,92.85
2023-03-05T08:06:23.077Z,92.47
2023-03-05T08:07:23.088Z,92.57
2023-03-05T08:08:26.723Z,92.66
2023-03-05T08:09:23.092Z,93.23
2023-03-05T08:10:23.097Z,93.61
2023-03-05T08:11:23.085Z,93.61
2023-03-05T08:12:23.088Z,93.61
2023-03-05T08:13:23.091Z,93.70
2023-03-05T08:14:23.093Z,93.80
2023-03-05T08:15:23.107Z,94.08
2023-03-05T08:16:23.187Z,94.56
2023-03-05T08:17:23.097Z,94.74
2023-03-05T08:18:23.105Z,94.56
2023-03-05T08:20:05.712Z,94.27
2023-03-05T08:21:05.647Z,94.37
2023-03-05T08:22:05.645Z,94.65
2023-03-05T08:23:08.277Z,94.37
2023-03-05T08:24:08.680Z,94.27
2023-03-05T08:25:05.664Z,94.56
2023-03-05T08:26:05.662Z,94.37
2023-03-05T08:27:05.657Z,94.37
2023-03-05T08:28:05.655Z,94.37
2023-03-05T08:29:05.653Z,94.37
2023-03-05T08:30:05.676Z,94.37
2023-03-05T08:31:05.706Z,93.99
2023-03-05T08:32:05.738Z,93.99
2023-03-05T08:33:05.670Z,94.56
2023-03-05T08:34:05.676Z,94.56
2023-03-05T08:35:05.674Z,94.56
2023-03-05T08:36:05.696Z,95.22
2023-03-05T08:37:05.669Z,94.56
2023-03-05T08:38:05.673Z,94.93
2023-03-05T08:39:09.109Z,94.18
2023-03-05T08:40:05.690Z,94.37
2023-03-05T08:41:48.218Z,94.46
2023-03-05T08:44:38.349Z,94.74
2023-03-05T08:45:38.343Z,94.65
2023-03-05T08:46:38.443Z,94.37
2023-03-05T08:47:38.354Z,94.46
2023-03-05T08:48:38.361Z,95.03
2023-03-05T08:49:38.361Z,95.31
2023-03-05T08:50:39.067Z,95.22
2023-03-05T08:51:38.380Z,95.22
2023-03-05T08:52:38.364Z,94.93
2023-03-05T08:53:38.361Z,94.84
2023-03-05T08:54:38.366Z,95.03
2023-03-05T08:55:38.363Z,95.22
2023-03-05T08:56:38.363Z,94.65
2023-03-05T08:57:38.372Z,94.65
2023-03-05T08:58:38.369Z,94.46
2023-03-05T08:59:41.193Z,94.65
2023-03-05T09:00:38.373Z,94.08
2023-03-05T09:02:20.941Z,94.23
2023-03-05T09:03:20.925Z,93.65
2023-03-05T09:04:20.925Z,94.03
2023-03-05T09:05:20.917Z,93.75
2023-03-05T09:06:20.924Z,93.75
2023-03-05T09:07:20.952Z,94.13
2023-03-05T09:09:08.481Z,93.18
2023-03-05T09:10:12.510Z,92.71
2023-03-05T09:11:08.478Z,93.08
2023-03-05T09:12:51.023Z,92.71
2023-03-05T09:13:51.029Z,92.52
2023-03-05T09:14:51.033Z,92.80
2023-03-05T09:15:51.025Z,92.52
2023-03-05T09:16:51.027Z,92.71
2023-03-05T09:17:51.031Z,92.42
2023-03-05T09:18:51.038Z,92.71
2023-03-05T09:19:51.041Z,92.52
2023-03-05T09:20:51.034Z,92.71
2023-03-05T09:21:51.045Z,92.71
2023-03-05T09:22:51.066Z,91.94
2023-03-05T09:23:51.041Z,92.61
2023-03-05T09:24:51.044Z,92.80
2023-03-05T09:25:51.046Z,92.61
2023-03-05T09:26:51.050Z,92.52
2023-03-05T09:27:51.061Z,92.42
2023-03-05T09:28:51.053Z,92.14
2023-03-05T09:29:51.066Z,91.66
2023-03-05T09:30:51.060Z,91.19
2023-03-05T09:31:51.185Z,90.81
2023-03-05T09:32:51.083Z,90.62
2023-03-05T09:33:51.072Z,91.09
2023-03-05T09:34:51.070Z,90.95
2023-03-05T09:35:51.098Z,90.86
2023-03-05T09:36:51.083Z,90.95
2023-03-05T09:37:51.079Z,91.33
2023-03-05T09:38:51.112Z,91.52
2023-03-05T09:39:51.089Z,91.61
2023-03-05T09:40:51.096Z,91.90
2023-03-05T09:41:51.103Z,91.80
2023-03-05T09:42:51.103Z,91.61
2023-03-05T09:43:51.090Z,92.28
2023-03-05T09:44:51.102Z,92.09
2023-03-05T09:45:51.162Z,92.09
2023-03-05T09:46:51.104Z,91.80
2023-03-05T09:47:51.116Z,91.80
2023-03-05T09:48:51.105Z,92.94
2023-03-05T09:49:51.115Z,92.47
2023-03-05T09:50:51.133Z,92.57
2023-03-05T09:51:51.128Z,92.47
2023-03-05T09:52:51.113Z,92.57
2023-03-05T09:53:51.122Z,92.85
2023-03-05T09:54:51.143Z,92.85
2023-03-05T09:55:51.126Z,92.66
2023-03-05T09:56:51.129Z,92.47
2023-03-05T09:57:51.133Z,92.28
2023-03-05T09:58:51.128Z,92.47
2023-03-05T09:59:51.148Z,92.61
2023-03-05T10:00:51.143Z,92.52
2023-03-05T10:01:51.136Z,93.08
2023-03-05T10:02:51.159Z,92.80
2023-03-05T10:03:51.249Z,92.80
2023-03-05T10:04:51.148Z,92.71
2023-03-05T10:05:51.152Z,92.80
2023-03-05T10:06:51.169Z,93.08
2023-03-05T10:07:51.150Z,92.80
2023-03-05T10:08:51.155Z,93.46
2023-03-05T10:09:51.165Z,93.46
2023-03-05T10:10:51.179Z,93.46
2023-03-05T10:11:51.171Z,93.18
2023-03-05T10:12:51.159Z,93.46
2023-03-05T10:13:51.167Z,93.65
2023-03-05T10:14:51.161Z,93.56
2023-03-05T10:15:51.169Z,93.94
2023-03-05T10:16:51.239Z,93.56
2023-03-05T10:17:51.173Z,93.70
2023-03-05T10:18:51.173Z,93.99
2023-03-05T10:19:51.180Z,94.56
2023-03-05T10:20:51.181Z,94.65
2023-03-05T10:21:51.192Z,94.08
2023-03-05T10:22:51.188Z,94.56
2023-03-05T10:23:51.187Z,94.65
2023-03-05T10:24:51.193Z,94.46
2023-03-05T10:25:51.190Z,94.37
2023-03-05T10:26:51.297Z,94.32
2023-03-05T10:27:53.738Z,94.32
2023-03-05T10:28:51.198Z,94.13
2023-03-05T10:29:51.215Z,94.04
2023-03-05T10:30:51.215Z,94.51
2023-03-05T10:31:51.260Z,94.51
2023-03-05T10:32:51.247Z,94.79
2023-03-05T10:33:51.215Z,93.94
2023-03-05T10:34:51.213Z,94.13
2023-03-05T10:35:51.272Z,94.42
2023-03-05T10:36:51.214Z,94.60
2023-03-05T10:37:51.220Z,94.42
2023-03-05T10:38:51.226Z,94.13
2023-03-05T10:39:51.224Z,94.70
2023-03-05T10:40:51.227Z,94.60
2023-03-05T10:41:51.236Z,94.37
2023-03-05T10:42:51.255Z,94.37
2023-03-05T10:43:51.234Z,94.18
2023-03-05T10:44:51.252Z,94.08
2023-03-05T10:45:51.280Z,93.99
2023-03-05T10:46:51.246Z,93.99
2023-03-05T10:47:51.252Z,93.99
2023-03-05T10:48:51.247Z,93.61
2023-03-05T10:49:51.273Z,93.80
2023-03-05T10:50:51.261Z,93.65
2023-03-05T10:51:51.259Z,93.37
2023-03-05T10:53:48.898Z,92.80
2023-03-05T10:54:50.252Z,93.04
2023-03-05T10:55:48.947Z,93.13
2023-03-05T10:56:48.854Z,91.99
2023-03-05T10:57:48.955Z,92.18
2023-03-05T10:58:48.974Z,91.52
2023-03-05T10:59:48.861Z,91.80
2023-03-05T11:00:48.857Z,91.14
2023-03-05T11:01:48.869Z,91.04
2023-03-05T11:02:48.918Z,91.14
2023-03-05T11:03:48.869Z,90.76
2023-03-05T11:04:48.872Z,90.76
2023-03-05T11:05:48.887Z,90.57
2023-03-05T11:06:48.883Z,90.47
2023-03-05T11:07:48.892Z,89.81
2023-03-05T11:08:48.893Z,89.62
2023-03-05T11:09:48.902Z,89.90
2023-03-05T11:10:48.905Z,90.19
2023-03-05T11:11:48.906Z,90.00
2023-03-05T11:12:48.914Z,89.53
2023-03-05T11:13:48.910Z,89.53
2023-03-05T11:14:48.939Z,89.53
2023-03-05T11:15:48.933Z,89.90
2023-03-05T11:16:48.928Z,89.81
2023-03-05T11:17:49.069Z,89.53
2023-03-05T11:18:48.930Z,89.81
2023-03-05T11:19:48.930Z,90.09
2023-03-05T11:21:48.943Z,89.33
2023-03-05T11:22:48.973Z,89.81
2023-03-05T11:23:48.956Z,90.28
2023-03-05T11:24:48.952Z,90.28
2023-03-05T11:25:48.964Z,90.28
2023-03-05T11:26:49.020Z,90.28
2023-03-05T11:27:50.640Z,89.53
2023-03-05T11:28:48.982Z,89.33
2023-03-05T11:29:48.972Z,89.24
2023-03-05T11:30:49.026Z,89.43
2023-03-05T11:31:48.975Z,89.00
2023-03-05T11:33:31.537Z,89.48
2023-03-05T11:34:34.961Z,89.39
2023-03-05T11:35:31.578Z,89.20
2023-03-05T11:37:14.080Z,89.29
2023-03-05T11:38:14.074Z,89.58
2023-03-05T11:39:15.501Z,89.10
2023-03-05T12:15:10.022Z,79.32
2023-03-05T12:16:10.066Z,78.22
2023-03-05T12:17:10.000Z,77.55
2023-03-05T12:18:10.011Z,77.36
2023-03-05T12:19:10.015Z,76.79
2023-03-05T12:20:10.056Z,76.82
2023-03-05T12:21:10.030Z,75.49
2023-03-05T12:22:10.044Z,75.20
2023-03-05T12:23:10.052Z,75.20
2023-03-05T12:24:10.059Z,75.30
2023-03-05T12:25:10.062Z,75.26
2023-03-05T12:26:10.068Z,72.88
2023-03-05T12:27:10.081Z,73.45
2023-03-05T12:28:10.088Z,73.07
2023-03-05T12:29:10.104Z,73.36
2023-03-05T12:30:10.116Z,73.26
2023-03-05T12:31:10.205Z,73.55
2023-03-05T12:32:10.183Z,73.55
2023-03-05T12:33:10.126Z,72.75
2023-03-05T12:34:10.135Z,72.56
2023-03-05T12:35:10.150Z,72.46
2023-03-05T12:36:10.150Z,71.22
2023-03-05T12:37:10.161Z,71.32
2023-03-05T12:38:25.858Z,71.51
2023-03-05T12:39:10.184Z,72.08
2023-03-05T12:40:10.191Z,71.73
2023-03-05T12:41:10.204Z,71.89
2023-03-05T12:42:10.208Z,70.65
2023-03-05T12:43:10.216Z,69.99
2023-03-05T12:44:10.224Z,70.47
2023-03-05T12:45:10.242Z,70.27
2023-03-05T12:46:10.242Z,70.43
2023-03-05T12:47:10.270Z,70.62
2023-03-05T12:49:37.886Z,69.10
2023-03-05T12:50:37.904Z,69.54
2023-03-05T12:51:37.915Z,69.44
2023-03-05T12:52:37.917Z,69.44
2023-03-05T12:53:37.916Z,70.39
2023-03-05T12:54:37.930Z,70.49
2023-03-05T12:55:37.940Z,70.01
2023-03-05T12:59:03.791Z,69.95
2023-03-05T13:00:03.812Z,69.85
2023-03-05T13:01:03.902Z,69.48
2023-03-05T13:02:03.831Z,69.48
2023-03-05T13:03:03.836Z,68.81
2023-03-05T13:04:03.897Z,67.67
2023-03-05T13:05:03.829Z,67.47
2023-03-05T13:06:03.841Z,68.33
2023-03-05T13:07:03.860Z,68.62
2023-03-05T13:08:03.859Z,67.57
2023-03-05T13:09:03.869Z,67.19
2023-03-05T13:10:03.863Z,66.81
2023-03-05T13:11:03.888Z,65.95
2023-03-05T13:12:03.956Z,66.24
2023-03-05T13:13:03.891Z,65.95
2023-03-05T13:14:03.913Z,66.91
2023-03-05T13:15:03.910Z,66.43
2023-03-05T13:16:03.965Z,66.72
2023-03-05T13:17:03.917Z,66.62
2023-03-05T13:18:03.933Z,66.68
2023-03-05T13:19:03.950Z,65.35
2023-03-05T13:20:03.942Z,65.35
2023-03-05T13:21:03.948Z,65.73
2023-03-05T13:22:03.956Z,66.27
2023-03-05T13:23:03.972Z,66.55
2023-03-05T13:24:03.977Z,67.13
2023-03-05T13:25:03.967Z,67.79
2023-03-05T13:26:03.981Z,68.27
2023-03-05T13:27:03.988Z,68.55
2023-03-05T13:28:04.001Z,69.31
2023-03-05T13:29:03.993Z,69.41
2023-03-05T13:30:04.014Z,69.79
2023-03-05T13:31:04.016Z,69.98
2023-03-05T13:32:04.091Z,69.98
2023-03-05T13:33:04.020Z,70.36
2023-03-05T13:34:04.032Z,70.54
2023-03-05T13:35:04.054Z,70.58
2023-03-05T13:36:04.046Z,70.49
2023-03-05T13:37:04.047Z,70.77
2023-03-05T13:42:13.221Z,70.68
2023-03-05T13:43:13.228Z,71.06
2023-03-05T13:57:19.400Z,72.26
2023-03-05T13:58:19.151Z,71.78
2023-03-05T13:59:18.985Z,71.78